createdAt,value
2018-10-03T00:00:07.971Z,99089.75
2018-10-03T00:02:38.330Z,99083.32
2018-10-03T00:05:06.889Z,99079.77
2018-10-03T00:07:37.830Z,99094.77
2018-10-03T00:10:07.826Z,99088.66
2018-10-03T00:12:37.790Z,99082.52
2018-10-03T00:15:09.654Z,99071.52
2018-10-03T00:17:37.952Z,99091.33
2018-10-03T00:20:07.645Z,99101.19
2018-10-03T00:23:02.899Z,99109.75
2018-10-03T00:26:47.578Z,99108.63
2018-10-03T00:29:16.889Z,99108.13
2018-10-03T00:31:45.861Z,99114.01
2018-10-03T00:34:14.814Z,99116.43
2018-10-03T00:36:44.489Z,99122.80
2018-10-03T00:39:13.857Z,99122.53
2018-10-03T00:42:48.810Z,99113.66
2018-10-03T00:45:18.192Z,99133.77
2018-10-03T00:47:47.794Z,99114.73
2018-10-03T00:50:17.004Z,99123.35
2018-10-03T00:52:46.935Z,99120.68
2018-10-03T00:55:16.729Z,99116.69
2018-10-03T00:57:46.008Z,99114.27
2018-10-03T01:00:16.063Z,99115.04
2018-10-03T01:02:45.838Z,99121.71
2018-10-03T01:05:15.642Z,99119.86
2018-10-03T01:07:44.922Z,99112.37
2018-10-03T01:10:14.817Z,99119.55
2018-10-03T01:12:44.581Z,99119.81
2018-10-03T01:15:17.150Z,99124.89
2018-10-03T01:17:47.864Z,99122.48
2018-10-03T01:20:17.069Z,99119.56
2018-10-03T01:22:46.816Z,99111.03
2018-10-03T01:25:15.641Z,99109.70
2018-10-03T01:27:45.825Z,99099.27
2018-10-03T01:30:15.190Z,99104.88
2018-10-03T01:32:44.901Z,99095.27
2018-10-03T01:35:14.586Z,99099.02
2018-10-03T01:37:43.907Z,99101.13
2018-10-03T01:40:14.629Z,99099.28
2018-10-03T01:42:44.761Z,99097.42
2018-10-03T01:45:14.643Z,99099.34
2018-10-03T01:47:44.872Z,99092.05
2018-10-03T01:50:14.769Z,99098.47
2018-10-03T01:52:44.768Z,99106.47
2018-10-03T01:55:13.749Z,99103.53
2018-10-03T01:57:42.985Z,99106.77
2018-10-03T02:00:13.822Z,99107.03
2018-10-03T02:02:43.778Z,99104.09
2018-10-03T02:05:12.925Z,99092.03
2018-10-03T02:07:42.794Z,99096.30
2018-10-03T02:10:12.624Z,99107.59
2018-10-03T02:12:42.777Z,99103.84
2018-10-03T02:15:12.833Z,99105.95
2018-10-03T02:17:44.829Z,99108.87
2018-10-03T02:20:14.847Z,99110.22
2018-10-03T02:22:44.029Z,99113.95
2018-10-03T02:25:13.277Z,99116.61
2018-10-03T02:27:42.062Z,99119.28
2018-10-03T02:30:10.734Z,99116.63
2018-10-03T02:32:39.818Z,99118.98
2018-10-03T02:35:08.998Z,99111.81
2018-10-03T02:37:38.612Z,99108.37
2018-10-03T02:40:07.881Z,99107.28
2018-10-03T02:42:37.581Z,99094.44
2018-10-03T02:45:06.627Z,99104.88
2018-10-03T02:47:35.790Z,99124.63
2018-10-03T02:50:05.697Z,99127.82
2018-10-03T02:52:33.925Z,99120.36
2018-10-03T02:55:04.861Z,99102.95
2018-10-03T02:57:34.105Z,99113.95
2018-10-03T03:00:03.754Z,99108.85
2018-10-03T03:02:33.207Z,99110.20
2018-10-03T03:05:02.782Z,99109.69
2018-10-03T03:07:32.801Z,99100.87
2018-10-03T03:10:05.991Z,99097.18
2018-10-03T03:12:34.853Z,99106.20
2018-10-03T03:15:04.741Z,99109.13
2018-10-03T03:18:41.059Z,99118.98
2018-10-03T03:21:12.174Z,99105.89
2018-10-03T03:23:41.733Z,99119.03
2018-10-03T03:26:10.957Z,99127.29
2018-10-03T03:28:39.993Z,99131.83
2018-10-03T03:31:09.765Z,99132.13
2018-10-03T03:36:01.246Z,99128.62
2018-10-03T03:38:31.532Z,99122.20
2018-10-03T03:41:00.874Z,99123.03
2018-10-03T03:43:29.961Z,99125.70
2018-10-03T03:46:00.406Z,99112.61
2018-10-03T03:49:17.958Z,99125.97
2018-10-03T03:51:47.765Z,99114.41
2018-10-03T03:54:18.745Z,99132.89
2018-10-03T03:56:47.926Z,99124.89
2018-10-03T03:59:18.066Z,99116.37
2018-10-03T04:01:46.917Z,99105.88
2018-10-03T04:04:16.645Z,99125.39
2018-10-03T04:06:44.878Z,99128.33
2018-10-03T04:09:14.215Z,99131.00
2018-10-03T04:11:44.445Z,99132.91
2018-10-03T04:14:13.766Z,99135.31
2018-10-03T04:16:42.082Z,99145.17
2018-10-03T04:20:32.572Z,99141.46
2018-10-03T04:23:02.746Z,99129.13
2018-10-03T04:25:32.730Z,99140.37
2018-10-03T04:28:01.854Z,99138.47
2018-10-03T04:30:31.205Z,99140.63
2018-10-03T04:33:01.771Z,99148.92
2018-10-03T04:35:31.637Z,99144.91
2018-10-03T04:38:01.889Z,99156.08
2018-10-03T04:40:30.901Z,99152.64
2018-10-03T04:43:00.609Z,99145.97
2018-10-03T04:45:30.068Z,99146.49
2018-10-03T04:47:59.954Z,99139.32
2018-10-03T04:50:30.556Z,99123.80
2018-10-03T04:53:01.871Z,99126.48
2018-10-03T04:55:31.063Z,99129.95
2018-10-03T04:57:59.994Z,99126.22
2018-10-03T05:00:29.801Z,99122.78
2018-10-03T05:02:59.555Z,99123.05
2018-10-03T05:05:27.917Z,99124.11
2018-10-03T05:07:57.596Z,99140.15
2018-10-03T05:10:26.772Z,99137.22
2018-10-03T05:12:56.721Z,99140.70
2018-10-03T05:15:28.944Z,99146.56
2018-10-03T05:17:58.581Z,99147.37
2018-10-03T05:20:28.757Z,99153.03
2018-10-03T05:22:57.950Z,99155.95
2018-10-03T05:25:28.204Z,99162.34
2018-10-03T05:27:57.836Z,99165.00
2018-10-03T05:30:26.783Z,99176.77
2018-10-03T05:32:55.892Z,99180.77
2018-10-03T05:35:25.199Z,99182.09
2018-10-03T05:37:54.891Z,99175.65
2018-10-03T05:40:24.602Z,99189.90
2018-10-03T05:42:55.538Z,99202.42
2018-10-03T05:45:24.183Z,99203.45
2018-10-03T05:47:53.669Z,99205.09
2018-10-03T05:50:22.846Z,99212.30
2018-10-03T05:52:51.835Z,99208.80
2018-10-03T05:55:21.662Z,99209.87
2018-10-03T05:57:51.177Z,99213.05
2018-10-03T06:02:50.802Z,99211.47
2018-10-03T06:05:19.833Z,99216.59
2018-10-03T06:07:49.199Z,99220.87
2018-10-03T06:10:18.606Z,99217.10
2018-10-03T06:12:47.939Z,99217.37
2018-10-03T06:15:18.829Z,99223.48
2018-10-03T06:17:48.738Z,99221.11
2018-10-03T06:20:17.840Z,99232.31
2018-10-03T06:22:47.926Z,99238.22
2018-10-03T06:25:17.730Z,99240.33
2018-10-03T06:27:47.016Z,99236.83
2018-10-03T06:30:16.470Z,99238.71
2018-10-03T06:32:45.825Z,99256.64
2018-10-03T06:35:15.864Z,99255.02
2018-10-03T06:37:45.012Z,99259.02
2018-10-03T06:42:54.876Z,99268.12
2018-10-03T06:45:24.891Z,99273.19
2018-10-03T06:51:45.976Z,99285.77
2018-10-03T06:54:15.643Z,99290.03
2018-10-03T06:56:44.826Z,99287.61
2018-10-03T06:59:15.702Z,99281.77
2018-10-03T07:01:44.869Z,99286.81
2018-10-03T07:04:14.692Z,99297.28
2018-10-03T07:06:43.859Z,99299.95
2018-10-03T07:09:13.758Z,99301.28
2018-10-03T07:11:43.734Z,99285.17
2018-10-03T07:14:13.782Z,99299.73
2018-10-03T07:16:42.921Z,99296.78
2018-10-03T07:19:16.199Z,99303.47
2018-10-03T07:21:48.794Z,99306.91
2018-10-03T07:24:18.000Z,99307.72
2018-10-03T07:26:47.646Z,99317.33
2018-10-03T07:29:21.555Z,99318.34
2018-10-03T07:31:51.770Z,99310.84
2018-10-03T07:34:20.058Z,99332.52
2018-10-03T07:36:49.798Z,99319.64
2018-10-03T07:39:18.846Z,99347.21
2018-10-03T07:41:47.985Z,99335.77
2018-10-03T07:44:17.194Z,99318.34
2018-10-03T07:46:46.933Z,99314.07
2018-10-03T07:49:18.877Z,99333.62
2018-10-03T07:51:48.810Z,99342.94
2018-10-03T07:54:17.997Z,99336.83
2018-10-03T07:56:47.778Z,99334.70
2018-10-03T07:59:17.118Z,99332.84
2018-10-03T08:01:46.966Z,99325.34
2018-10-03T08:04:36.682Z,99328.58
2018-10-03T08:07:07.270Z,99313.25
2018-10-03T08:09:38.910Z,99322.16
2018-10-03T08:12:08.841Z,99303.12
2018-10-03T08:14:38.841Z,99320.01
2018-10-03T08:17:08.045Z,99315.47
2018-10-03T08:19:37.954Z,99315.42
2018-10-03T08:22:07.804Z,99310.33
2018-10-03T08:24:37.595Z,99324.58
2018-10-03T08:27:07.216Z,99325.08
2018-10-03T08:29:36.925Z,99335.52
2018-10-03T08:32:06.922Z,99342.97
2018-10-03T08:34:37.640Z,99351.28
2018-10-03T08:37:07.858Z,99354.20
2018-10-03T08:39:37.827Z,99349.38
2018-10-03T08:42:08.829Z,99356.12
2018-10-03T08:44:37.941Z,99360.89
2018-10-03T08:47:07.962Z,99368.41
2018-10-03T08:49:37.959Z,99360.45
2018-10-03T08:52:09.985Z,99364.76
2018-10-03T08:54:39.971Z,99365.30
2018-10-03T08:57:09.961Z,99361.08
2018-10-03T08:59:39.982Z,99362.69
2018-10-03T09:02:09.999Z,99358.36
2018-10-03T09:04:40.042Z,99357.61
2018-10-03T09:07:10.017Z,99352.08
2018-10-03T09:09:40.022Z,99353.34
2018-10-03T09:12:10.099Z,99349.91
2018-10-03T09:14:40.972Z,99344.00
2018-10-03T09:17:13.295Z,99351.78
2018-10-03T09:19:45.958Z,99350.98
2018-10-03T09:22:15.996Z,99355.27
2018-10-03T09:24:45.979Z,99361.70
2018-10-03T09:27:15.047Z,99361.44
2018-10-03T09:29:44.962Z,99348.27
2018-10-03T09:34:38.814Z,99362.80
2018-10-03T09:37:08.479Z,99364.94
2018-10-03T09:39:36.977Z,99356.34
2018-10-03T09:42:06.894Z,99359.59
2018-10-03T09:44:37.084Z,99365.47
2018-10-03T09:47:08.395Z,99360.10
2018-10-03T09:49:38.882Z,99361.20
2018-10-03T09:52:09.846Z,99370.81
2018-10-03T09:54:39.799Z,99371.62
2018-10-03T09:57:09.923Z,99363.36
2018-10-03T09:59:39.941Z,99369.86
2018-10-03T10:02:09.789Z,99374.64
2018-10-03T10:04:39.463Z,99369.30
2018-10-03T10:07:10.310Z,99368.79
2018-10-03T10:09:38.985Z,99370.19
2018-10-03T10:12:11.759Z,99373.89
2018-10-03T10:14:42.865Z,99352.76
2018-10-03T10:17:11.945Z,99380.88
2018-10-03T10:19:41.957Z,99377.30
2018-10-03T10:22:10.957Z,99381.38
2018-10-03T10:24:40.930Z,99382.48
2018-10-03T10:27:11.316Z,99367.72
2018-10-03T10:29:41.924Z,99387.34
2018-10-03T10:32:11.957Z,99386.24
2018-10-03T10:34:42.746Z,99386.24
2018-10-03T10:37:48.972Z,99390.01
2018-10-03T10:42:38.961Z,99383.95
2018-10-03T10:49:15.958Z,99395.16
2018-10-03T10:51:48.735Z,99389.01
2018-10-03T10:54:18.878Z,99393.17
2018-10-03T10:56:49.852Z,99387.73
2018-10-03T10:59:19.865Z,99394.77
2018-10-03T11:01:49.882Z,99394.27
2018-10-03T11:04:45.871Z,99403.68
2018-10-03T11:07:14.993Z,99401.29
2018-10-03T11:09:44.884Z,99404.00
2018-10-03T11:12:15.033Z,99388.48
2018-10-03T11:14:44.837Z,99399.51
2018-10-03T11:17:14.032Z,99382.97
2018-10-03T11:19:43.769Z,99373.57
2018-10-03T11:22:13.877Z,99383.84
2018-10-03T11:25:08.465Z,99403.30
2018-10-03T11:27:38.654Z,99388.08
2018-10-03T11:30:08.558Z,99390.80
2018-10-03T11:32:38.140Z,99392.41
2018-10-03T11:37:15.957Z,99399.17
2018-10-03T11:39:45.953Z,99396.25
2018-10-03T11:42:16.945Z,99386.08
2018-10-03T11:44:46.932Z,99396.88
2018-10-03T11:47:17.983Z,99390.75
2018-10-03T11:49:48.967Z,99403.05
2018-10-03T11:52:19.944Z,99401.45
2018-10-03T11:54:50.590Z,99378.05
2018-10-03T11:57:20.912Z,99397.95
2018-10-03T11:59:50.735Z,99403.86
2018-10-03T12:02:20.870Z,99402.45
2018-10-03T12:04:53.473Z,99406.19
2018-10-03T12:07:22.109Z,99397.35
2018-10-03T12:09:52.893Z,99398.11
2018-10-03T12:12:22.937Z,99398.42
2018-10-03T12:14:52.901Z,99404.28
2018-10-03T12:17:21.980Z,99399.44
2018-10-03T12:19:51.882Z,99398.42
2018-10-03T12:22:21.558Z,99398.97
2018-10-03T12:24:51.725Z,99402.17
2018-10-03T12:27:21.216Z,99400.27
2018-10-03T12:29:52.005Z,99404.71
2018-10-03T12:32:28.842Z,99403.34
2018-10-03T12:34:58.886Z,99400.19
2018-10-03T12:38:52.989Z,99388.22
2018-10-03T12:41:23.061Z,99408.19
2018-10-03T12:43:52.973Z,99407.64
2018-10-03T12:46:22.977Z,99410.04
2018-10-03T12:48:52.973Z,99406.59
2018-10-03T12:52:22.012Z,99407.42
2018-10-03T12:54:52.049Z,99408.19
2018-10-03T12:58:31.989Z,99408.39
2018-10-03T13:01:01.001Z,99394.75
2018-10-03T13:03:30.974Z,99411.12
2018-10-03T13:06:01.987Z,99396.36
2018-10-03T13:08:32.680Z,99393.18
2018-10-03T13:11:01.883Z,99402.91
2018-10-03T13:13:31.940Z,99404.97
2018-10-03T13:16:02.224Z,99404.45
2018-10-03T13:18:31.993Z,99401.25
2018-10-03T13:21:02.026Z,99376.45
2018-10-03T13:23:31.989Z,99403.88
2018-10-03T13:26:34.951Z,99405.47
2018-10-03T13:30:29.020Z,99399.04
2018-10-03T13:32:58.958Z,99399.86
2018-10-03T13:35:28.989Z,99398.83
2018-10-03T13:37:58.963Z,99399.86
2018-10-03T13:40:28.938Z,99400.95
2018-10-03T13:42:58.913Z,99394.31
2018-10-03T13:45:28.841Z,99394.16
2018-10-03T13:47:57.881Z,99403.62
2018-10-03T13:50:29.857Z,99402.08
2018-10-03T13:52:59.941Z,99392.20
2018-10-03T13:55:30.881Z,99391.08
2018-10-03T13:58:00.995Z,99389.48
2018-10-03T14:00:31.001Z,99387.89
2018-10-03T14:03:46.961Z,99385.47
2018-10-03T14:06:15.981Z,99392.97
2018-10-03T14:08:47.770Z,99395.92
2018-10-03T14:11:19.672Z,99388.41
2018-10-03T14:13:49.750Z,99395.91
2018-10-03T14:16:20.006Z,99395.34
2018-10-03T14:18:50.953Z,99396.99
2018-10-03T14:21:20.769Z,99398.59
2018-10-03T14:23:50.073Z,99392.67
2018-10-03T14:26:19.805Z,99396.73
2018-10-03T14:28:49.021Z,99399.16
2018-10-03T14:31:17.808Z,99395.92
2018-10-03T14:33:47.766Z,99393.76
2018-10-03T14:36:16.852Z,99381.97
2018-10-03T14:38:48.505Z,99383.30
2018-10-03T14:41:17.921Z,99393.74
2018-10-03T14:43:47.040Z,99393.18
2018-10-03T14:46:16.792Z,99393.74
2018-10-03T14:48:47.830Z,99399.36
2018-10-03T14:51:17.226Z,99389.72
2018-10-03T14:53:45.972Z,99388.38
2018-10-03T14:56:15.770Z,99391.06
2018-10-03T14:58:45.037Z,99388.66
2018-10-03T15:01:14.457Z,99390.26
2018-10-03T15:03:43.799Z,99392.14
2018-10-03T15:06:13.855Z,99388.66
2018-10-03T15:08:44.830Z,99389.80
2018-10-03T15:11:14.447Z,99382.02
2018-10-03T15:13:42.838Z,99394.33
2018-10-03T15:16:12.048Z,99390.87
2018-10-03T15:18:42.165Z,99385.73
2018-10-03T15:21:11.325Z,99397.55
2018-10-03T15:23:40.937Z,99395.41
2018-10-03T15:26:09.933Z,99399.41
2018-10-03T15:28:39.826Z,99393.54
2018-10-03T15:31:09.451Z,99393.55
2018-10-03T15:33:38.934Z,99395.14
2018-10-03T15:36:08.638Z,99394.58
2018-10-03T15:38:37.796Z,99395.92
2018-10-03T15:41:07.721Z,99400.18
2018-10-03T15:43:36.865Z,99400.48
2018-10-03T15:46:06.704Z,99406.22
2018-10-03T15:48:36.208Z,99412.14
2018-10-03T15:51:06.029Z,99418.58
2018-10-03T15:53:34.861Z,99418.58
2018-10-03T15:56:04.665Z,99419.35
2018-10-03T15:58:33.845Z,99419.35
2018-10-03T16:01:06.842Z,99418.81
2018-10-03T16:03:36.766Z,99406.37
2018-10-03T16:06:16.691Z,99405.77
2018-10-03T16:08:45.601Z,99430.11
2018-10-03T16:11:17.506Z,99421.02
2018-10-03T16:13:45.905Z,99426.08
2018-10-03T16:16:14.937Z,99429.84
2018-10-03T16:18:46.215Z,99431.18
2018-10-03T16:21:16.913Z,99430.61
2018-10-03T16:23:46.754Z,99431.69
2018-10-03T16:26:16.818Z,99427.11
2018-10-03T16:28:45.213Z,99435.94
2018-10-03T16:31:14.806Z,99437.28
2018-10-03T16:33:43.939Z,99447.17
2018-10-03T16:36:13.706Z,99452.06
2018-10-03T16:38:43.822Z,99451.55
2018-10-03T16:41:13.826Z,99434.67
2018-10-03T16:43:43.784Z,99456.47
2018-10-03T16:46:13.800Z,99454.56
2018-10-03T16:48:42.832Z,99457.16
2018-10-03T16:51:11.929Z,99458.49
2018-10-03T16:53:43.066Z,99433.55
2018-10-03T16:56:12.817Z,99464.68
2018-10-03T17:00:50.873Z,99467.63
2018-10-03T17:03:20.683Z,99466.53
2018-10-03T17:08:48.911Z,99459.58
2018-10-03T17:11:17.913Z,99468.97
2018-10-03T17:14:37.025Z,99462.58
2018-10-03T17:17:07.765Z,99465.75
2018-10-03T17:19:38.977Z,99481.58
2018-10-03T17:22:36.770Z,99481.81
2018-10-03T17:25:06.252Z,99466.45
2018-10-03T17:27:35.648Z,99484.99
2018-10-03T17:30:04.941Z,99482.01
2018-10-03T17:32:34.643Z,99483.06
2018-10-03T17:35:03.778Z,99488.41
2018-10-03T17:37:33.838Z,99477.16
2018-10-03T17:40:03.169Z,99495.95
2018-10-03T17:42:33.282Z,99504.74
2018-10-03T17:45:01.789Z,99503.95
2018-10-03T17:47:31.629Z,99503.41
2018-10-03T17:50:01.014Z,99501.53
2018-10-03T17:52:30.643Z,99496.70
2018-10-03T17:54:59.834Z,99496.95
2018-10-03T17:57:29.171Z,99495.63
2018-10-03T17:59:58.769Z,99500.73
2018-10-03T18:02:27.918Z,99502.36
2018-10-03T18:04:57.217Z,99501.55
2018-10-03T18:07:26.827Z,99498.31
2018-10-03T18:09:56.963Z,99489.12
2018-10-03T18:12:26.213Z,99506.83
2018-10-03T18:14:55.630Z,99471.09
2018-10-03T18:17:25.673Z,99507.39
2018-10-03T18:19:55.898Z,99510.08
2018-10-03T18:22:25.613Z,99514.08
2018-10-03T18:24:53.796Z,99511.14
2018-10-03T18:27:39.459Z,99483.71
2018-10-03T18:30:15.466Z,99452.80
2018-10-03T18:32:44.659Z,99512.23
2018-10-03T18:35:13.786Z,99509.73
2018-10-03T18:37:42.856Z,99522.67
2018-10-03T18:40:11.876Z,99522.13
2018-10-03T18:42:41.830Z,99523.52
2018-10-03T18:45:10.988Z,99525.62
2018-10-03T18:47:40.890Z,99512.14
2018-10-03T18:50:12.128Z,99527.47
2018-10-03T18:52:41.067Z,99521.53
2018-10-03T18:55:10.714Z,99524.80
2018-10-03T18:57:39.909Z,99524.80
2018-10-03T19:00:09.625Z,99530.44
2018-10-03T19:02:37.858Z,99531.20
2018-10-03T19:05:07.440Z,99539.25
2018-10-03T19:07:35.797Z,99513.39
2018-10-03T19:12:14.876Z,99541.89
2018-10-03T19:14:43.763Z,99542.98
2018-10-03T19:17:13.821Z,99544.56
2018-10-03T19:19:43.627Z,99549.38
2018-10-03T19:22:13.632Z,99552.34
2018-10-03T19:24:42.913Z,99550.17
2018-10-03T19:27:12.239Z,99543.99
2018-10-03T19:29:41.653Z,99546.94
2018-10-03T19:32:10.877Z,99556.72
2018-10-03T19:34:40.755Z,99559.78
2018-10-03T19:37:09.825Z,99556.80
2018-10-03T19:39:38.888Z,99559.74
2018-10-03T19:42:08.671Z,99558.37
2018-10-03T19:44:37.961Z,99558.41
2018-10-03T19:47:07.593Z,99565.97
2018-10-03T19:49:36.713Z,99565.08
2018-10-03T19:52:48.603Z,99563.47
2018-10-03T19:55:16.809Z,99560.78
2018-10-03T19:57:46.553Z,99565.06
2018-10-03T20:00:15.768Z,99571.33
2018-10-03T20:05:29.733Z,99566.34
2018-10-03T20:07:59.794Z,99560.13
2018-10-03T20:10:29.191Z,99564.14
2018-10-03T20:12:58.622Z,99565.21
2018-10-03T20:15:27.886Z,99569.73
2018-10-03T20:17:56.986Z,99569.73
2018-10-03T20:20:26.729Z,99567.34
2018-10-03T20:24:39.872Z,99572.73
2018-10-03T20:27:10.738Z,99575.03
2018-10-03T20:29:40.569Z,99580.36
2018-10-03T20:32:09.903Z,99583.19
2018-10-03T20:34:39.721Z,99588.04
2018-10-03T20:37:08.942Z,99593.42
2018-10-03T20:39:38.865Z,99589.14
2018-10-03T20:42:08.626Z,99596.06
2018-10-03T20:44:37.851Z,99592.83
2018-10-03T20:47:06.937Z,99591.80
2018-10-03T20:49:36.063Z,99589.91
2018-10-03T20:52:05.783Z,99593.41
2018-10-03T20:54:35.057Z,99593.08
2018-10-03T20:57:05.614Z,99597.36
2018-10-03T20:59:34.821Z,99593.09
2018-10-03T21:02:04.631Z,99588.23
2018-10-03T21:04:33.785Z,99590.72
2018-10-03T21:07:04.025Z,99582.63
2018-10-03T21:09:33.705Z,99559.27
2018-10-03T21:13:47.785Z,99594.43
2018-10-03T21:16:17.917Z,99569.66
2018-10-03T21:18:47.388Z,99604.87
2018-10-03T21:21:16.712Z,99605.11
2018-10-03T21:23:45.853Z,99599.75
2018-10-03T21:26:15.805Z,99602.78
2018-10-03T21:28:45.920Z,99610.29
2018-10-03T21:31:15.683Z,99611.81
2018-10-03T21:33:44.877Z,99612.87
2018-10-03T21:36:14.854Z,99588.59
2018-10-03T21:38:44.934Z,99617.11
2018-10-03T21:41:13.836Z,99612.28
2018-10-03T21:43:43.719Z,99610.84
2018-10-03T21:46:14.785Z,99619.22
2018-10-03T21:49:45.648Z,99617.86
2018-10-03T21:52:13.989Z,99615.80
2018-10-03T21:54:45.338Z,99619.22
2018-10-03T21:58:58.537Z,99615.23
2018-10-03T22:01:29.009Z,99600.25
2018-10-03T22:04:00.704Z,99599.49
2018-10-03T22:06:30.937Z,99616.14
2018-10-03T22:09:00.707Z,99610.02
2018-10-03T22:11:29.785Z,99588.98
2018-10-03T22:13:59.655Z,99609.88
2018-10-03T22:19:57.376Z,99612.20
2018-10-03T22:22:29.395Z,99596.84
2018-10-03T22:24:59.926Z,99607.60
2018-10-03T22:27:30.185Z,99606.00
2018-10-03T22:29:58.901Z,99599.88
2018-10-03T22:32:28.795Z,99601.42
2018-10-03T22:34:58.762Z,99600.65
2018-10-03T22:39:43.905Z,99609.09
2018-10-03T22:42:13.792Z,99593.26
2018-10-03T22:44:43.882Z,99600.55
2018-10-03T22:49:00.745Z,99610.70
2018-10-03T22:51:30.167Z,99603.45
2018-10-03T22:54:33.234Z,99614.45
2018-10-03T22:57:01.857Z,99616.30
2018-10-03T22:59:31.899Z,99608.27
2018-10-03T23:02:01.769Z,99608.53
2018-10-03T23:04:30.909Z,99609.03
2018-10-03T23:07:00.721Z,99609.51
2018-10-03T23:09:30.197Z,99603.91
2018-10-03T23:11:59.832Z,99609.02
2018-10-03T23:14:29.839Z,99611.94
2018-10-03T23:17:00.801Z,99594.73
2018-10-03T23:19:30.734Z,99609.27
2018-10-03T23:21:59.969Z,99613.54
2018-10-03T23:24:30.949Z,99600.86
2018-10-03T23:27:00.838Z,99614.59
2018-10-03T23:29:30.831Z,99615.38
2018-10-03T23:31:59.877Z,99622.55
2018-10-03T23:34:28.197Z,99619.61
2018-10-03T23:36:57.851Z,99620.68
2018-10-03T23:39:27.746Z,99616.37
2018-10-03T23:43:10.942Z,99617.93
2018-10-03T23:45:40.002Z,99619.27
2018-10-03T23:48:08.789Z,99619.00
2018-10-03T23:50:38.199Z,99623.58
2018-10-03T23:53:09.826Z,99627.02
2018-10-03T23:55:39.201Z,99624.31
2018-10-03T23:58:08.850Z,99556.08
